createdAt,value
2019-04-16T00:01:45.329Z,6.70
2019-04-16T00:04:25.017Z,6.63
2019-04-16T00:07:00.362Z,6.70
2019-04-16T00:09:32.813Z,6.67
2019-04-16T00:12:21.243Z,7.13
2019-04-16T00:14:54.016Z,6.70
2019-04-16T00:17:24.894Z,6.97
2019-04-16T00:19:55.605Z,6.50
2019-04-16T00:22:27.661Z,6.70
2019-04-16T00:24:58.097Z,6.23
2019-04-16T00:27:29.430Z,6.73
2019-04-16T00:30:03.908Z,7.07
2019-04-16T00:32:32.806Z,6.73
2019-04-16T00:35:04.005Z,6.77
2019-04-16T00:37:34.762Z,6.37
2019-04-16T00:40:07.144Z,6.53
2019-04-16T00:42:38.065Z,6.37
2019-04-16T00:45:09.210Z,7.23
2019-04-16T00:47:39.939Z,6.87
2019-04-16T00:50:11.128Z,6.80
2019-04-16T00:52:42.260Z,7.07
2019-04-16T00:55:14.524Z,7.20
2019-04-16T00:57:48.434Z,6.63
2019-04-16T01:00:18.143Z,7.07
2019-04-16T01:02:48.840Z,6.70
2019-04-16T01:05:19.247Z,7.30
2019-04-16T01:07:50.022Z,6.53
2019-04-16T01:10:20.754Z,6.87
2019-04-16T01:12:51.286Z,6.57
2019-04-16T01:15:22.109Z,6.50
2019-04-16T01:17:52.516Z,6.40
2019-04-16T01:20:23.269Z,6.53
2019-04-16T01:22:54.103Z,7.17
2019-04-16T01:25:24.953Z,6.70
2019-04-16T01:28:01.188Z,6.73
2019-04-16T01:30:50.064Z,7.00
2019-04-16T01:33:34.253Z,6.60
2019-04-16T01:36:24.830Z,7.10
2019-04-16T01:39:10.949Z,6.77
2019-04-16T01:41:29.899Z,6.70
2019-04-16T01:44:00.439Z,7.00
2019-04-16T01:46:32.973Z,6.40
2019-04-16T01:49:03.726Z,7.47
2019-04-16T01:51:37.590Z,6.90
2019-04-16T01:54:07.056Z,7.03
2019-04-16T01:56:37.865Z,7.00
2019-04-16T01:59:08.722Z,6.60
2019-04-16T02:01:40.335Z,7.17
2019-04-16T02:04:12.004Z,6.57
2019-04-16T02:06:42.738Z,7.17
2019-04-16T02:09:22.517Z,7.03
2019-04-16T02:11:45.982Z,7.00
2019-04-16T02:14:18.436Z,6.97
2019-04-16T02:16:49.274Z,7.30
2019-04-16T02:19:20.096Z,7.27
2019-04-16T02:21:50.968Z,7.13
2019-04-16T02:24:21.703Z,7.33
2019-04-16T02:26:54.809Z,7.83
2019-04-16T02:29:29.805Z,7.93
2019-04-16T02:31:57.475Z,7.30
2019-04-16T02:34:28.326Z,7.83
2019-04-16T02:37:02.283Z,6.93
2019-04-16T02:39:47.366Z,7.77
2019-04-16T02:42:04.111Z,7.90
2019-04-16T02:44:35.058Z,7.20
2019-04-16T02:47:07.840Z,7.77
2019-04-16T02:49:38.795Z,7.83
2019-04-16T02:52:20.445Z,7.47
2019-04-16T02:55:08.113Z,7.80
2019-04-16T02:57:44.550Z,7.57
2019-04-16T03:00:21.206Z,7.37
2019-04-16T03:03:02.818Z,7.90
2019-04-16T03:05:35.378Z,7.80
2019-04-16T03:08:05.999Z,8.47
2019-04-16T03:10:37.267Z,8.50
2019-04-16T03:13:07.643Z,8.43
2019-04-16T03:15:42.496Z,8.07
2019-04-16T03:18:16.119Z,8.23
2019-04-16T03:20:47.155Z,8.47
2019-04-16T03:23:18.104Z,8.47
2019-04-16T03:25:48.929Z,8.57
2019-04-16T03:28:19.780Z,7.90
2019-04-16T03:30:50.626Z,7.97
2019-04-16T03:33:21.457Z,9.00
2019-04-16T03:35:52.321Z,8.07
2019-04-16T03:38:23.224Z,8.80
2019-04-16T03:40:56.086Z,9.03
2019-04-16T03:43:26.538Z,8.80
2019-04-16T03:45:57.466Z,8.63
2019-04-16T03:48:28.442Z,8.80
2019-04-16T03:51:00.483Z,8.30
2019-04-16T03:53:31.516Z,8.90
2019-04-16T03:56:02.396Z,8.43
2019-04-16T03:58:35.551Z,9.07
2019-04-16T04:01:05.320Z,9.80
2019-04-16T04:03:36.136Z,8.97
2019-04-16T04:06:08.086Z,9.27
2019-04-16T04:08:39.316Z,8.87
2019-04-16T04:11:10.686Z,9.33
2019-04-16T04:13:42.101Z,9.43
2019-04-16T04:16:13.069Z,9.07
2019-04-16T04:18:43.952Z,9.23
2019-04-16T04:21:14.828Z,9.17
2019-04-16T04:23:45.550Z,9.20
2019-04-16T04:26:16.299Z,9.10
2019-04-16T04:28:48.637Z,9.60
2019-04-16T04:31:19.117Z,9.80
2019-04-16T04:33:49.583Z,9.43
2019-04-16T04:36:22.975Z,9.73
2019-04-16T04:38:52.939Z,9.00
2019-04-16T04:41:24.289Z,9.40
2019-04-16T04:43:55.211Z,9.07
2019-04-16T04:46:26.008Z,8.83
2019-04-16T04:49:00.072Z,9.63
2019-04-16T04:51:28.951Z,9.50
2019-04-16T04:53:59.706Z,9.33
2019-04-16T04:56:30.432Z,9.30
2019-04-16T04:59:02.453Z,9.33
2019-04-16T05:01:33.731Z,10.37
2019-04-16T05:04:11.647Z,9.23
2019-04-16T05:06:46.988Z,9.33
2019-04-16T05:09:20.911Z,10.53
2019-04-16T05:11:51.634Z,10.23
2019-04-16T05:14:25.154Z,9.33
2019-04-16T05:16:54.955Z,9.63
2019-04-16T05:19:25.674Z,9.60
2019-04-16T05:21:56.501Z,9.87
2019-04-16T05:24:29.178Z,9.70
2019-04-16T05:26:59.735Z,9.37
2019-04-16T05:29:30.658Z,9.50
2019-04-16T05:32:01.475Z,10.33
2019-04-16T05:34:34.676Z,10.00
2019-04-16T05:37:04.677Z,10.33
2019-04-16T05:39:35.557Z,9.33
2019-04-16T05:42:09.554Z,9.57
2019-04-16T05:44:38.861Z,9.47
2019-04-16T05:47:09.581Z,10.23
2019-04-16T05:49:40.323Z,10.20
2019-04-16T05:52:11.150Z,12.47
2019-04-16T05:54:44.327Z,9.70
2019-04-16T05:57:27.902Z,10.00
2019-04-16T05:59:58.708Z,9.40
2019-04-16T06:02:33.837Z,9.87
2019-04-16T06:05:05.951Z,10.40
2019-04-16T06:07:38.087Z,10.70
2019-04-16T06:10:16.680Z,10.60
2019-04-16T06:12:57.124Z,10.40
2019-04-16T06:15:35.894Z,10.50
2019-04-16T06:18:08.983Z,10.30
2019-04-16T06:20:57.819Z,10.47
2019-04-16T06:23:48.263Z,9.83
2019-04-16T06:26:23.271Z,11.30
2019-04-16T06:28:59.685Z,10.60
2019-04-16T06:31:32.312Z,10.93
2019-04-16T06:34:16.961Z,10.43
2019-04-16T06:36:49.431Z,10.30
2019-04-16T06:39:34.031Z,10.20
2019-04-16T06:42:15.508Z,10.93
2019-04-16T06:44:50.678Z,10.77
2019-04-16T06:47:29.043Z,10.03
2019-04-16T06:50:07.189Z,10.17
2019-04-16T06:52:55.901Z,10.30
2019-04-16T06:55:44.285Z,11.37
2019-04-16T06:58:27.109Z,10.67
2019-04-16T07:01:07.082Z,10.37
2019-04-16T07:03:46.079Z,10.70
2019-04-16T07:06:27.757Z,10.93
2019-04-16T07:09:03.190Z,11.20
2019-04-16T07:11:38.413Z,9.83
2019-04-16T07:14:11.508Z,9.53
2019-04-16T07:16:41.541Z,9.90
2019-04-16T07:19:12.379Z,9.83
2019-04-16T07:21:43.253Z,10.30
2019-04-16T07:24:14.250Z,10.47
2019-04-16T07:26:47.857Z,10.20
2019-04-16T07:29:25.205Z,10.20
2019-04-16T07:31:57.976Z,10.00
2019-04-16T07:34:39.824Z,11.07
2019-04-16T07:37:13.645Z,10.10
2019-04-16T07:40:08.663Z,10.67
2019-04-16T07:42:51.210Z,10.47
2019-04-16T07:45:18.294Z,10.30
2019-04-16T07:47:51.802Z,11.07
2019-04-16T07:50:32.242Z,10.53
2019-04-16T07:53:17.419Z,10.47
2019-04-16T07:55:50.019Z,10.37
2019-04-16T07:58:21.631Z,10.43
2019-04-16T08:08:34.816Z,10.47
2019-04-16T08:11:05.677Z,10.53
2019-04-16T08:13:38.346Z,11.20
2019-04-16T08:16:12.253Z,10.80
2019-04-16T08:18:50.667Z,9.83
2019-04-16T08:21:24.399Z,10.37
2019-04-16T08:24:03.025Z,10.30
2019-04-16T08:26:33.824Z,10.60
2019-04-16T08:29:05.111Z,10.33
2019-04-16T08:31:37.356Z,10.63
2019-04-16T08:34:08.294Z,10.67
2019-04-16T08:36:39.129Z,10.23
2019-04-16T08:39:12.062Z,9.73
2019-04-16T08:41:42.861Z,9.30
2019-04-16T08:44:13.689Z,9.30
2019-04-16T08:46:44.525Z,9.03
2019-04-16T08:49:15.470Z,8.90
2019-04-16T08:51:46.335Z,8.80
2019-04-16T08:54:18.191Z,8.40
2019-04-16T08:56:49.632Z,8.33
2019-04-16T08:59:23.410Z,9.37
2019-04-16T09:01:55.973Z,8.90
2019-04-16T09:04:26.820Z,8.63
2019-04-16T09:07:10.799Z,8.70
2019-04-16T09:09:39.358Z,7.40
2019-04-16T09:12:10.204Z,7.10
2019-04-16T09:14:42.862Z,7.60
2019-04-16T09:17:15.391Z,7.77
2019-04-16T09:19:48.944Z,6.47
2019-04-16T09:22:19.826Z,6.80
2019-04-16T09:25:01.373Z,6.27
2019-04-16T09:27:34.257Z,7.30
2019-04-16T09:30:19.598Z,7.33
2019-04-16T09:32:52.118Z,8.03
2019-04-16T09:35:27.254Z,7.47
2019-04-16T09:37:59.727Z,7.43
2019-04-16T09:40:49.229Z,7.57
2019-04-16T09:43:22.097Z,8.30
2019-04-16T09:45:52.640Z,7.97
2019-04-16T09:48:23.130Z,8.67
2019-04-16T09:50:53.994Z,8.33
2019-04-16T09:53:33.419Z,8.13
2019-04-16T09:55:59.078Z,8.77
2019-04-16T09:58:29.858Z,8.33
2019-04-16T10:01:11.444Z,9.10
2019-04-16T10:03:43.512Z,8.07
2019-04-16T10:06:14.477Z,8.50
2019-04-16T10:08:45.677Z,8.17
2019-04-16T10:11:18.511Z,8.53
2019-04-16T10:13:49.032Z,8.17
2019-04-16T10:16:21.277Z,8.83
2019-04-16T10:18:52.395Z,8.77
2019-04-16T10:21:23.282Z,8.30
2019-04-16T10:24:01.990Z,9.53
2019-04-16T10:26:32.842Z,8.80
2019-04-16T10:29:08.331Z,8.80
2019-04-16T10:31:38.966Z,8.90
2019-04-16T10:34:09.836Z,8.53
2019-04-16T10:36:40.999Z,8.60
2019-04-16T10:39:13.692Z,9.77
2019-04-16T10:41:46.739Z,8.43
2019-04-16T10:44:19.232Z,8.70
2019-04-16T10:47:00.250Z,8.97
2019-04-16T10:49:35.466Z,8.67
2019-04-16T10:52:23.176Z,8.17
2019-04-16T10:54:55.685Z,7.67
2019-04-16T10:57:43.464Z,7.70
2019-04-16T11:00:21.013Z,8.47
2019-04-16T11:02:59.285Z,7.90
2019-04-16T11:05:48.175Z,7.80
2019-04-16T11:08:19.089Z,7.77
2019-04-16T11:10:49.937Z,8.23
2019-04-16T11:13:31.418Z,8.50
2019-04-16T11:16:04.016Z,7.73
2019-04-16T11:18:34.965Z,8.10
2019-04-16T11:21:05.797Z,8.37
2019-04-16T11:23:36.863Z,7.73
2019-04-16T11:26:07.702Z,7.60
2019-04-16T11:28:38.582Z,7.57
2019-04-16T11:31:11.482Z,7.37
2019-04-16T11:33:42.412Z,7.50
2019-04-16T11:36:19.394Z,8.23
2019-04-16T11:38:46.110Z,8.13
2019-04-16T11:41:16.670Z,7.50
2019-04-16T11:43:47.819Z,8.23
2019-04-16T11:46:18.690Z,8.60
2019-04-16T11:48:50.343Z,8.83
2019-04-16T11:51:21.570Z,8.90
2019-04-16T11:53:52.433Z,8.47
2019-04-16T11:56:23.319Z,8.00
2019-04-16T11:58:57.271Z,7.87
2019-04-16T12:01:28.327Z,8.43
2019-04-16T12:04:15.646Z,8.50
2019-04-16T12:06:52.524Z,8.57
2019-04-16T12:09:41.644Z,8.00
2019-04-16T12:12:20.920Z,8.10
2019-04-16T12:15:09.618Z,8.27
2019-04-16T12:17:58.786Z,8.30
2019-04-16T12:20:46.323Z,7.67
2019-04-16T12:23:30.974Z,7.60
2019-04-16T12:26:15.894Z,6.97
2019-04-16T12:29:03.212Z,7.17
2019-04-16T12:31:38.621Z,8.30
2019-04-16T12:34:18.986Z,8.23
2019-04-16T12:36:51.307Z,7.60
2019-04-16T12:39:26.844Z,7.53
2019-04-16T12:42:00.209Z,7.60
2019-04-16T12:44:44.706Z,7.27
2019-04-16T12:47:10.025Z,7.67
2019-04-16T12:49:49.231Z,7.50
2019-04-16T12:52:33.842Z,7.83
2019-04-16T12:55:15.288Z,7.50
2019-04-16T12:58:06.021Z,7.33
2019-04-16T13:00:38.968Z,7.43
2019-04-16T13:03:16.347Z,7.73
2019-04-16T13:06:06.765Z,6.90
2019-04-16T13:08:39.173Z,6.97
2019-04-16T13:11:13.204Z,7.47
2019-04-16T13:14:02.194Z,7.40
2019-04-16T13:16:35.723Z,7.90
2019-04-16T13:19:08.525Z,8.23
2019-04-16T13:21:41.040Z,8.30
2019-04-16T13:24:13.598Z,7.73
2019-04-16T13:26:46.195Z,8.13
2019-04-16T13:29:20.322Z,7.37
2019-04-16T13:31:51.009Z,7.50
2019-04-16T13:34:21.867Z,8.43
2019-04-16T13:36:52.748Z,6.80
2019-04-16T13:39:28.522Z,6.87
2019-04-16T13:41:59.632Z,6.97
2019-04-16T13:44:37.712Z,7.10
2019-04-16T13:47:07.775Z,7.43
2019-04-16T13:49:52.664Z,6.97
2019-04-16T13:52:25.429Z,6.80
2019-04-16T13:55:10.518Z,6.23
2019-04-16T13:57:43.922Z,7.23
2019-04-16T14:00:36.406Z,7.57
2019-04-16T14:03:08.898Z,7.63
2019-04-16T14:05:42.790Z,7.77
2019-04-16T14:08:15.447Z,7.60
2019-04-16T14:10:46.432Z,7.73
2019-04-16T14:13:17.315Z,8.03
2019-04-16T14:15:48.165Z,7.77
2019-04-16T14:18:21.799Z,7.77
2019-04-16T14:20:54.240Z,7.83
2019-04-16T14:23:25.175Z,7.77
2019-04-16T14:25:56.625Z,7.90
2019-04-16T14:28:27.640Z,7.87
2019-04-16T14:30:58.563Z,8.17
2019-04-16T14:33:33.818Z,7.80
2019-04-16T14:36:06.513Z,8.43
2019-04-16T14:38:55.593Z,7.47
2019-04-16T14:41:26.515Z,7.70
2019-04-16T14:44:10.445Z,8.43
2019-04-16T14:46:41.415Z,8.03
2019-04-16T14:49:15.094Z,8.37
2019-04-16T14:51:44.640Z,7.80
2019-04-16T14:54:25.906Z,7.80
2019-04-16T14:56:58.480Z,7.93
2019-04-16T14:59:47.791Z,7.90
2019-04-16T15:02:32.286Z,7.60
2019-04-16T15:05:04.452Z,7.30
2019-04-16T15:07:36.990Z,7.63
2019-04-16T15:10:27.236Z,7.40
2019-04-16T15:13:05.359Z,7.80
2019-04-16T15:15:37.834Z,7.30
2019-04-16T15:18:10.398Z,7.37
2019-04-16T15:20:48.808Z,7.90
2019-04-16T15:23:30.097Z,7.53
2019-04-16T15:26:08.414Z,7.70
2019-04-16T15:28:40.918Z,7.73
2019-04-16T15:31:13.454Z,7.90
2019-04-16T15:33:45.573Z,8.93
2019-04-16T15:36:20.448Z,8.53
2019-04-16T15:38:54.622Z,8.67
2019-04-16T15:41:29.903Z,8.13
2019-04-16T15:44:08.560Z,8.20
2019-04-16T15:46:56.441Z,8.43
2019-04-16T15:49:32.420Z,8.20
2019-04-16T15:52:09.893Z,8.17
2019-04-16T15:55:00.204Z,8.27
2019-04-16T15:57:49.166Z,8.87
2019-04-16T16:00:33.669Z,8.80
2019-04-16T16:03:22.811Z,7.80
2019-04-16T16:05:56.014Z,8.63
2019-04-16T16:08:37.300Z,8.53
2019-04-16T16:11:16.143Z,8.83
2019-04-16T16:13:48.038Z,9.70
2019-04-16T16:16:19.200Z,9.50
2019-04-16T16:18:50.174Z,8.97
2019-04-16T16:21:21.246Z,8.90
2019-04-16T16:23:52.009Z,9.03
2019-04-16T16:26:22.734Z,9.43
2019-04-16T16:28:53.676Z,9.10
2019-04-16T16:31:24.224Z,9.63
2019-04-16T16:33:55.063Z,9.90
2019-04-16T16:36:25.900Z,9.50
2019-04-16T16:38:56.458Z,8.33
2019-04-16T16:41:27.252Z,9.13
2019-04-16T16:43:58.062Z,9.23
2019-04-16T16:46:56.135Z,9.53
2019-04-16T16:49:14.998Z,9.07
2019-04-16T16:51:50.210Z,9.03
2019-04-16T16:54:22.974Z,9.30
2019-04-16T16:57:02.131Z,9.13
2019-04-16T16:59:48.213Z,9.30
2019-04-16T17:02:20.750Z,9.00
2019-04-16T17:04:53.220Z,9.40
2019-04-16T17:07:24.077Z,9.53
2019-04-16T17:09:55.000Z,9.17
2019-04-16T17:12:25.835Z,9.63
2019-04-16T17:14:56.828Z,9.50
2019-04-16T17:17:28.087Z,10.90
2019-04-16T17:19:58.855Z,10.40
2019-04-16T17:22:36.427Z,10.23
2019-04-16T17:25:10.749Z,10.10
2019-04-16T17:27:51.127Z,10.90
2019-04-16T17:30:12.675Z,10.33
2019-04-16T17:32:43.436Z,10.23
2019-04-16T17:35:15.919Z,11.20
2019-04-16T17:37:46.879Z,10.43
2019-04-16T17:40:25.075Z,10.70
2019-04-16T17:43:12.931Z,10.20
2019-04-16T17:45:57.517Z,11.87
2019-04-16T17:48:47.703Z,11.00
2019-04-16T17:51:20.431Z,11.63
2019-04-16T17:53:53.027Z,11.10
2019-04-16T17:56:25.839Z,12.57
2019-04-16T17:58:58.505Z,11.40
2019-04-16T18:01:43.303Z,11.77
2019-04-16T18:04:34.264Z,11.30
2019-04-16T18:07:15.928Z,12.30
2019-04-16T18:09:51.325Z,11.30
2019-04-16T18:12:38.905Z,11.80
2019-04-16T18:15:14.193Z,11.27
2019-04-16T18:17:47.726Z,10.60
2019-04-16T18:20:20.784Z,11.10
2019-04-16T18:23:10.004Z,11.47
2019-04-16T18:25:57.903Z,10.77
2019-04-16T18:28:33.363Z,10.70
2019-04-16T18:31:06.381Z,10.17
2019-04-16T18:33:39.033Z,10.10
2019-04-16T18:36:23.479Z,10.03
2019-04-16T18:39:12.315Z,10.00
2019-04-16T18:41:57.051Z,9.97
2019-04-16T18:44:29.613Z,9.37
2019-04-16T18:47:11.296Z,9.87
2019-04-16T18:49:43.853Z,9.80
2019-04-16T18:52:16.414Z,9.67
2019-04-16T18:54:50.256Z,10.03
2019-04-16T18:57:20.793Z,10.00
2019-04-16T18:59:53.021Z,9.37
2019-04-16T19:02:25.855Z,9.17
2019-04-16T19:04:56.949Z,8.97
2019-04-16T19:07:30.215Z,9.63
2019-04-16T19:10:01.173Z,9.13
2019-04-16T19:12:32.136Z,9.53
2019-04-16T19:15:02.715Z,10.13
2019-04-16T19:17:33.725Z,8.53
2019-04-16T19:20:06.491Z,9.30
2019-04-16T19:22:37.539Z,9.60
2019-04-16T19:25:09.434Z,8.83
2019-04-16T19:27:40.341Z,9.30
2019-04-16T19:30:11.895Z,9.33
2019-04-16T19:32:42.831Z,9.57
2019-04-16T19:35:17.174Z,9.37
2019-04-16T19:37:46.696Z,9.17
2019-04-16T19:40:18.976Z,9.53
2019-04-16T19:42:50.979Z,9.77
2019-04-16T19:45:22.139Z,9.43
2019-04-16T19:47:52.810Z,9.17
2019-04-16T19:50:23.687Z,9.27
2019-04-16T19:52:54.384Z,9.33
2019-04-16T19:55:25.278Z,9.10
2019-04-16T19:57:57.591Z,9.50
2019-04-16T20:00:29.322Z,10.13
2019-04-16T20:03:00.258Z,9.80
2019-04-16T20:05:31.460Z,9.13
2019-04-16T20:08:02.510Z,9.37
2019-04-16T20:10:33.370Z,9.40
2019-04-16T20:13:04.484Z,9.40
2019-04-16T20:15:35.488Z,8.93
2019-04-16T20:18:07.323Z,8.90
2019-04-16T20:20:37.815Z,9.57
2019-04-16T20:23:08.379Z,9.37
2019-04-16T20:25:39.271Z,9.20
2019-04-16T20:28:15.372Z,9.13
2019-04-16T20:30:43.221Z,9.00
2019-04-16T20:33:14.412Z,9.27
2019-04-16T20:35:50.357Z,9.50
2019-04-16T20:38:17.900Z,9.43
2019-04-16T20:40:48.695Z,9.37
2019-04-16T20:43:19.268Z,9.60
2019-04-16T20:45:49.725Z,9.50
2019-04-16T20:48:20.728Z,9.77
2019-04-16T20:50:53.001Z,9.80
2019-04-16T20:53:24.952Z,8.93
2019-04-16T20:55:55.860Z,9.00
2019-04-16T20:58:30.637Z,8.97
2019-04-16T21:01:01.767Z,9.47
2019-04-16T21:03:32.361Z,9.13
2019-04-16T21:06:07.155Z,9.33
2019-04-16T21:08:35.994Z,9.07
2019-04-16T21:11:08.790Z,8.93
2019-04-16T21:13:39.457Z,9.23
2019-04-16T21:16:10.501Z,9.43
2019-04-16T21:18:41.276Z,9.73
2019-04-16T21:21:13.551Z,9.20
2019-04-16T21:23:44.398Z,9.63
2019-04-16T21:26:16.603Z,9.83
2019-04-16T21:28:49.865Z,9.50
2019-04-16T21:31:28.275Z,9.40
2019-04-16T21:34:09.985Z,9.50
2019-04-16T21:36:42.587Z,9.83
2019-04-16T21:39:17.553Z,9.53
2019-04-16T21:41:47.487Z,9.90
2019-04-16T21:44:18.323Z,9.30
2019-04-16T21:46:52.045Z,9.47
2019-04-16T21:49:37.330Z,9.63
2019-04-16T21:52:09.223Z,9.50
2019-04-16T21:54:39.749Z,9.60
2019-04-16T21:57:13.464Z,9.57
2019-04-16T21:59:42.819Z,9.80
2019-04-16T22:02:18.292Z,9.43
2019-04-16T22:04:49.263Z,9.03
2019-04-16T22:07:24.616Z,9.60
2019-04-16T22:09:54.470Z,10.07
2019-04-16T22:12:25.042Z,9.63
2019-04-16T22:14:56.115Z,9.30
2019-04-16T22:17:26.500Z,9.23
2019-04-16T22:20:01.301Z,9.13
2019-04-16T22:22:29.940Z,8.70
2019-04-16T22:25:00.796Z,10.37
2019-04-16T22:27:31.652Z,9.00
2019-04-16T22:30:02.567Z,9.43
2019-04-16T22:32:33.976Z,9.37
2019-04-16T22:35:07.565Z,9.67
2019-04-16T22:37:38.365Z,9.03
2019-04-16T22:40:26.973Z,9.70
2019-04-16T22:43:06.777Z,9.10
2019-04-16T22:45:39.254Z,8.60
2019-04-16T22:48:13.123Z,9.63
2019-04-16T22:50:44.102Z,9.30
2019-04-16T22:53:17.180Z,9.43
2019-04-16T22:55:47.595Z,10.00
2019-04-16T22:58:25.408Z,9.23
2019-04-16T23:01:00.520Z,9.30
2019-04-16T23:03:31.407Z,9.87
2019-04-16T23:06:05.896Z,9.40
2019-04-16T23:08:35.002Z,11.90
2019-04-16T23:11:06.017Z,9.20
2019-04-16T23:13:36.925Z,9.30
2019-04-16T23:16:07.502Z,9.47
2019-04-16T23:18:38.365Z,9.40
2019-04-16T23:21:10.706Z,9.13
2019-04-16T23:23:41.436Z,10.03
2019-04-16T23:26:12.524Z,9.73
2019-04-16T23:28:43.424Z,10.30
2019-04-16T23:31:14.244Z,9.37
2019-04-16T23:33:45.182Z,9.33
2019-04-16T23:36:16.635Z,9.40
2019-04-16T23:38:47.446Z,9.20
2019-04-16T23:41:18.348Z,8.90
2019-04-16T23:43:54.372Z,9.20
2019-04-16T23:46:39.065Z,8.93
2019-04-16T23:49:28.012Z,9.87
2019-04-16T23:52:03.034Z,10.00
2019-04-16T23:54:34.682Z,9.03
2019-04-16T23:57:07.269Z,9.30
2019-04-16T23:59:54.522Z,9.20
